createdAt,value
2019-05-13T00:01:43.436Z,67.26
2019-05-13T00:04:09.422Z,67.32
2019-05-13T00:06:49.909Z,66.99
2019-05-13T00:09:05.566Z,67.56
2019-05-13T00:11:31.410Z,67.67
2019-05-13T00:13:57.323Z,68.00
2019-05-13T00:16:23.522Z,67.85
2019-05-13T00:18:49.422Z,67.25
2019-05-13T00:21:15.309Z,68.36
2019-05-13T00:23:41.153Z,68.94
2019-05-13T00:26:07.015Z,68.92
2019-05-13T00:28:34.170Z,69.72
2019-05-13T00:31:00.444Z,68.85
2019-05-13T00:33:26.294Z,67.63
2019-05-13T00:35:53.465Z,68.10
2019-05-13T00:38:19.415Z,68.06
2019-05-13T00:40:45.262Z,67.33
2019-05-13T00:43:11.169Z,67.81
2019-05-13T00:45:37.029Z,68.24
2019-05-13T00:48:04.685Z,68.42
2019-05-13T00:50:30.761Z,67.68
2019-05-13T00:52:56.622Z,68.19
2019-05-13T00:55:23.767Z,67.75
2019-05-13T00:57:49.823Z,67.41
2019-05-13T01:00:16.042Z,67.07
2019-05-13T01:02:44.328Z,67.60
2019-05-13T01:05:09.886Z,67.66
2019-05-13T01:07:35.749Z,67.99
2019-05-13T01:10:04.041Z,67.47
2019-05-13T01:12:29.474Z,68.54
2019-05-13T01:14:55.347Z,67.58
2019-05-13T01:17:23.494Z,67.36
2019-05-13T01:19:49.036Z,67.45
2019-05-13T01:22:15.740Z,68.56
2019-05-13T01:24:43.654Z,68.51
2019-05-13T01:27:09.363Z,67.49
2019-05-13T01:29:35.216Z,67.36
2019-05-13T01:32:01.075Z,67.50
2019-05-13T01:34:26.929Z,67.92
2019-05-13T01:36:53.550Z,68.24
2019-05-13T01:39:19.539Z,67.58
2019-05-13T01:41:45.396Z,68.58
2019-05-13T01:44:11.241Z,67.89
2019-05-13T01:46:37.107Z,67.90
2019-05-13T01:49:04.956Z,67.90
2019-05-13T01:51:33.269Z,68.99
2019-05-13T01:53:58.473Z,69.09
2019-05-13T01:56:24.334Z,69.39
2019-05-13T01:58:50.204Z,69.80
2019-05-13T02:01:16.065Z,69.88
2019-05-13T02:03:44.171Z,70.00
2019-05-13T02:06:09.721Z,69.80
2019-05-13T02:08:35.580Z,69.53
2019-05-13T02:11:04.011Z,69.62
2019-05-13T02:13:29.720Z,69.52
2019-05-13T02:15:55.741Z,69.89
2019-05-13T02:18:24.135Z,69.87
2019-05-13T02:20:49.400Z,69.00
2019-05-13T02:23:15.279Z,68.72
2019-05-13T02:25:43.445Z,68.83
2019-05-13T02:28:10.706Z,68.73
2019-05-13T02:30:36.742Z,70.07
2019-05-13T02:33:03.194Z,70.21
2019-05-13T02:35:32.242Z,70.00
2019-05-13T02:38:14.716Z,69.65
2019-05-13T02:40:24.684Z,70.49
2019-05-13T02:42:52.324Z,70.24
2019-05-13T02:45:18.308Z,70.70
2019-05-13T02:47:44.587Z,70.32
2019-05-13T02:50:12.825Z,69.97
2019-05-13T02:52:38.993Z,70.43
2019-05-13T02:55:05.848Z,69.35
2019-05-13T02:57:32.761Z,70.14
2019-05-13T02:59:58.868Z,69.95
2019-05-13T03:02:24.714Z,70.30
2019-05-13T03:04:52.317Z,70.33
2019-05-13T03:07:18.347Z,71.11
2019-05-13T03:09:44.226Z,71.66
2019-05-13T03:12:13.057Z,70.79
2019-05-13T03:14:37.841Z,71.21
2019-05-13T03:17:08.122Z,71.05
2019-05-13T03:19:33.978Z,70.65
2019-05-13T03:22:02.996Z,70.88
2019-05-13T03:24:28.468Z,70.12
2019-05-13T03:26:54.313Z,70.61
2019-05-13T03:29:22.222Z,70.91
2019-05-13T03:31:47.931Z,70.75
2019-05-13T03:34:15.774Z,70.89
2019-05-13T03:36:46.137Z,70.53
2019-05-13T03:39:14.473Z,71.69
2019-05-13T03:41:38.011Z,71.80
2019-05-13T03:44:09.190Z,71.59
2019-05-13T03:46:37.769Z,71.63
2019-05-13T03:49:06.727Z,71.09
2019-05-13T03:51:32.847Z,70.75
2019-05-13T03:54:02.775Z,72.43
2019-05-13T03:56:26.792Z,71.69
2019-05-13T03:58:53.619Z,71.51
2019-05-13T04:01:22.391Z,72.24
2019-05-13T04:03:47.975Z,72.17
2019-05-13T04:06:14.486Z,71.66
2019-05-13T04:08:43.381Z,70.68
2019-05-13T04:11:08.252Z,71.13
2019-05-13T04:13:34.114Z,71.70
2019-05-13T04:16:03.566Z,71.88
2019-05-13T04:18:27.955Z,71.41
2019-05-13T04:20:53.809Z,71.87
2019-05-13T04:23:22.947Z,72.10
2019-05-13T04:25:47.567Z,72.28
2019-05-13T04:28:13.651Z,72.04
2019-05-13T04:30:43.333Z,71.59
2019-05-13T04:33:07.972Z,72.20
2019-05-13T04:35:33.815Z,71.15
2019-05-13T04:38:03.024Z,71.83
2019-05-13T04:40:27.429Z,71.75
2019-05-13T04:42:53.935Z,71.94
2019-05-13T04:45:23.478Z,73.46
2019-05-13T04:47:47.762Z,73.36
2019-05-13T04:50:13.907Z,73.12
2019-05-13T04:52:42.343Z,72.51
2019-05-13T04:55:08.033Z,74.23
2019-05-13T04:57:34.086Z,74.29
2019-05-13T05:00:03.727Z,74.08
2019-05-13T05:02:55.002Z,74.65
2019-05-13T05:05:34.453Z,75.30
2019-05-13T05:08:28.010Z,75.47
2019-05-13T05:11:14.319Z,75.67
2019-05-13T05:14:04.221Z,76.41
2019-05-13T05:16:52.289Z,76.05
2019-05-13T05:19:32.096Z,75.48
2019-05-13T05:22:22.034Z,75.15
2019-05-13T05:25:08.034Z,73.94
2019-05-13T05:28:04.908Z,73.13
2019-05-13T05:31:08.556Z,73.08
2019-05-13T05:33:56.889Z,72.46
2019-05-13T05:36:52.904Z,71.88
2019-05-13T05:39:26.340Z,70.86
2019-05-13T05:41:55.249Z,70.57
2019-05-13T05:44:24.471Z,70.46
2019-05-13T05:46:52.963Z,69.65
2019-05-13T05:49:21.440Z,69.31
2019-05-13T05:51:51.462Z,69.10
2019-05-13T05:54:21.665Z,69.03
2019-05-13T05:56:51.961Z,68.18
2019-05-13T05:59:21.808Z,67.04
2019-05-13T06:01:52.616Z,67.01
2019-05-13T06:04:21.872Z,66.48
2019-05-13T06:06:48.113Z,66.28
2019-05-13T06:09:14.174Z,65.32
2019-05-13T06:11:41.739Z,65.09
2019-05-13T06:14:07.841Z,64.75
2019-05-13T06:16:33.823Z,64.81
2019-05-13T06:19:01.396Z,64.21
2019-05-13T06:21:27.418Z,63.88
2019-05-13T06:23:53.290Z,62.50
2019-05-13T06:26:19.233Z,63.01
2019-05-13T06:28:45.962Z,63.47
2019-05-13T06:31:13.314Z,61.94
2019-05-13T06:33:39.235Z,60.94
2019-05-13T06:36:05.220Z,61.06
2019-05-13T06:38:31.811Z,60.86
2019-05-13T06:41:02.669Z,61.65
2019-05-13T06:43:25.778Z,60.90
2019-05-13T06:45:51.627Z,60.67
2019-05-13T06:48:17.478Z,59.14
2019-05-13T06:50:43.341Z,58.59
2019-05-13T06:53:09.199Z,59.54
2019-05-13T06:55:35.062Z,57.42
2019-05-13T06:58:02.207Z,58.25
2019-05-13T07:00:28.477Z,57.20
2019-05-13T07:02:54.320Z,56.89
2019-05-13T07:05:22.492Z,56.72
2019-05-13T07:07:47.954Z,56.51
2019-05-13T07:10:13.928Z,55.88
2019-05-13T07:12:41.204Z,55.83
2019-05-13T07:15:07.707Z,56.10
2019-05-13T07:17:33.594Z,55.94
2019-05-13T07:20:02.092Z,55.21
2019-05-13T07:22:27.240Z,55.11
2019-05-13T07:24:53.150Z,53.18
2019-05-13T07:27:19.059Z,53.18
2019-05-13T07:29:44.934Z,53.21
2019-05-13T07:32:11.967Z,52.81
2019-05-13T07:34:38.097Z,52.18
2019-05-13T07:37:03.957Z,52.07
2019-05-13T07:39:32.404Z,51.69
2019-05-13T07:41:57.975Z,51.57
2019-05-13T07:44:23.822Z,51.58
2019-05-13T07:46:52.103Z,51.07
2019-05-13T07:49:17.484Z,48.53
2019-05-13T07:51:43.341Z,48.76
2019-05-13T07:54:11.402Z,46.36
2019-05-13T07:56:37.170Z,47.77
2019-05-13T07:59:03.021Z,47.61
2019-05-13T08:01:28.878Z,46.41
2019-05-13T08:03:54.748Z,45.00
2019-05-13T08:06:21.966Z,45.47
2019-05-13T08:08:48.119Z,44.62
2019-05-13T08:11:13.984Z,44.52
2019-05-13T08:13:41.582Z,43.54
2019-05-13T08:16:07.638Z,42.84
2019-05-13T08:18:33.602Z,42.05
2019-05-13T08:21:02.078Z,39.90
2019-05-13T08:23:27.310Z,39.99
2019-05-13T08:25:53.192Z,39.52
2019-05-13T08:28:19.040Z,40.06
2019-05-13T08:30:45.003Z,38.69
2019-05-13T08:33:12.534Z,39.66
2019-05-13T08:35:38.731Z,39.95
2019-05-13T08:38:04.578Z,40.08
2019-05-13T08:40:31.822Z,39.45
2019-05-13T08:42:57.808Z,39.18
2019-05-13T08:45:23.786Z,38.99
2019-05-13T08:47:51.218Z,38.48
2019-05-13T08:50:17.488Z,36.82
2019-05-13T08:52:43.353Z,36.96
2019-05-13T08:55:13.536Z,36.34
2019-05-13T08:57:37.299Z,35.50
2019-05-13T09:00:05.887Z,35.21
2019-05-13T09:02:31.853Z,34.98
2019-05-13T09:04:58.021Z,35.47
2019-05-13T09:07:24.502Z,35.11
2019-05-13T09:09:51.219Z,34.41
2019-05-13T09:12:29.505Z,33.86
2019-05-13T09:14:45.309Z,34.31
2019-05-13T09:17:12.063Z,34.98
2019-05-13T09:19:38.240Z,35.12
2019-05-13T09:22:04.104Z,32.48
2019-05-13T09:24:36.645Z,32.95
2019-05-13T09:26:57.764Z,33.62
2019-05-13T09:29:23.730Z,33.42
2019-05-13T09:31:51.927Z,31.77
2019-05-13T09:34:17.498Z,31.60
2019-05-13T09:36:43.356Z,32.42
2019-05-13T09:39:09.210Z,32.15
2019-05-13T09:41:40.851Z,32.47
2019-05-13T09:44:03.256Z,33.17
2019-05-13T09:46:31.627Z,33.09
2019-05-13T09:49:11.869Z,34.83
2019-05-13T09:51:24.630Z,30.68
2019-05-13T09:53:51.955Z,28.12
2019-05-13T09:56:18.035Z,30.28
2019-05-13T09:58:43.917Z,30.97
2019-05-13T10:01:12.331Z,31.25
2019-05-13T10:03:53.239Z,31.06
2019-05-13T10:06:05.832Z,31.79
2019-05-13T10:08:32.797Z,32.40
2019-05-13T10:11:01.365Z,31.48
2019-05-13T10:13:26.828Z,32.30
2019-05-13T10:15:52.657Z,31.84
2019-05-13T10:18:18.769Z,31.69
2019-05-13T10:20:57.913Z,30.45
2019-05-13T10:23:22.397Z,30.90
2019-05-13T10:25:52.176Z,31.07
2019-05-13T10:28:18.546Z,30.22
2019-05-13T10:30:46.600Z,29.74
2019-05-13T10:33:12.697Z,30.46
2019-05-13T10:35:42.894Z,30.01
2019-05-13T10:38:13.122Z,30.44
2019-05-13T10:40:37.650Z,28.80
2019-05-13T10:43:03.521Z,28.04
2019-05-13T10:45:29.499Z,27.89
2019-05-13T10:47:55.358Z,27.99
2019-05-13T10:50:23.226Z,28.93
2019-05-13T10:52:49.563Z,29.80
2019-05-13T10:55:16.749Z,29.46
2019-05-13T10:57:42.617Z,30.37
2019-05-13T11:00:08.974Z,31.36
2019-05-13T11:02:34.852Z,29.21
2019-05-13T11:05:02.923Z,29.82
2019-05-13T11:07:28.478Z,30.02
2019-05-13T11:09:54.386Z,32.16
2019-05-13T11:12:22.213Z,30.29
2019-05-13T11:14:51.433Z,30.14
2019-05-13T11:17:15.747Z,28.02
2019-05-13T11:19:41.769Z,28.14
2019-05-13T11:22:07.670Z,29.18
2019-05-13T11:24:33.495Z,29.94
2019-05-13T11:26:59.345Z,29.10
2019-05-13T11:29:25.235Z,29.14
2019-05-13T11:31:52.446Z,29.32
2019-05-13T11:34:21.580Z,29.47
2019-05-13T11:36:46.648Z,28.91
2019-05-13T11:39:13.112Z,30.11
2019-05-13T11:41:42.459Z,29.51
2019-05-13T11:44:14.121Z,30.00
2019-05-13T11:46:34.667Z,29.39
2019-05-13T11:49:02.495Z,29.82
2019-05-13T11:51:28.290Z,28.70
2019-05-13T11:53:54.159Z,30.07
2019-05-13T11:56:22.740Z,30.04
2019-05-13T11:58:48.071Z,30.44
2019-05-13T12:01:13.994Z,30.87
2019-05-13T12:03:42.884Z,31.37
2019-05-13T12:06:07.673Z,32.58
2019-05-13T12:08:34.299Z,32.59
2019-05-13T12:11:03.292Z,31.18
2019-05-13T12:13:28.223Z,31.34
2019-05-13T12:15:54.697Z,32.01
2019-05-13T12:18:23.681Z,31.23
2019-05-13T12:20:48.405Z,30.40
2019-05-13T12:23:14.400Z,30.43
2019-05-13T12:25:43.730Z,30.35
2019-05-13T12:28:07.981Z,30.77
2019-05-13T12:30:34.164Z,31.10
2019-05-13T12:33:03.158Z,30.77
2019-05-13T12:35:32.226Z,31.64
2019-05-13T12:37:56.873Z,31.32
2019-05-13T12:40:23.287Z,32.03
2019-05-13T12:42:49.298Z,31.00
2019-05-13T12:45:15.358Z,31.51
2019-05-13T12:47:43.260Z,30.00
2019-05-13T12:50:09.485Z,29.37
2019-05-13T12:52:37.317Z,30.37
2019-05-13T12:55:03.974Z,31.02
2019-05-13T12:57:31.919Z,30.12
2019-05-13T13:02:32.347Z,30.22
2019-05-13T13:05:10.524Z,30.36
2019-05-13T13:07:24.561Z,29.55
2019-05-13T13:09:53.483Z,29.75
2019-05-13T13:12:18.413Z,29.80
2019-05-13T13:14:44.756Z,30.40
2019-05-13T13:17:12.836Z,29.35
2019-05-13T13:19:38.482Z,29.77
2019-05-13T13:22:07.900Z,30.92
2019-05-13T13:24:32.098Z,29.11
2019-05-13T13:26:57.955Z,29.54
2019-05-13T13:29:23.914Z,28.33
2019-05-13T13:31:54.046Z,28.61
2019-05-13T13:34:18.964Z,28.55
2019-05-13T13:36:46.320Z,29.30
2019-05-13T13:39:14.860Z,29.11
2019-05-13T13:44:08.244Z,29.04
2019-05-13T13:46:42.312Z,30.83
2019-05-13T13:49:02.137Z,28.50
2019-05-13T13:51:28.011Z,28.53
2019-05-13T13:53:56.519Z,29.18
2019-05-13T13:56:25.220Z,27.81
2019-05-13T13:58:49.456Z,27.92
2019-05-13T14:03:46.057Z,28.90
2019-05-13T14:06:12.661Z,28.90
2019-05-13T14:06:58.555Z,29.16
2019-05-13T14:07:09.314Z,28.24
2019-05-13T14:08:41.376Z,29.08
2019-05-13T14:11:08.657Z,29.89
2019-05-13T14:13:34.532Z,29.79
2019-05-13T14:16:01.880Z,30.77
2019-05-13T14:18:28.040Z,30.45
2019-05-13T14:20:53.905Z,30.12
2019-05-13T14:23:21.284Z,30.84
2019-05-13T14:25:47.301Z,31.39
2019-05-13T14:28:17.338Z,29.78
2019-05-13T14:30:42.229Z,31.00
2019-05-13T14:33:08.150Z,30.61
2019-05-13T14:35:34.067Z,31.76
2019-05-13T14:38:02.324Z,30.76
2019-05-13T14:40:27.742Z,30.88
2019-05-13T14:42:53.606Z,30.39
2019-05-13T14:45:21.362Z,30.60
2019-05-13T14:47:47.325Z,31.50
2019-05-13T14:50:13.385Z,31.48
2019-05-13T14:52:41.500Z,31.89
2019-05-13T14:55:07.577Z,30.24
2019-05-13T14:57:33.415Z,30.31
2019-05-13T15:00:02.175Z,29.79
2019-05-13T15:02:27.031Z,30.81
2019-05-13T15:04:53.197Z,29.87
2019-05-13T15:07:21.372Z,30.63
2019-05-13T15:09:46.995Z,32.13
2019-05-13T15:12:12.876Z,29.88
2019-05-13T15:14:40.673Z,31.06
2019-05-13T15:17:07.731Z,30.76
2019-05-13T15:19:34.036Z,29.63
2019-05-13T15:21:59.889Z,30.15
2019-05-13T15:24:26.311Z,30.51
2019-05-13T15:26:52.224Z,31.17
2019-05-13T15:29:18.102Z,31.15
2019-05-13T15:31:57.571Z,31.01
2019-05-13T15:34:23.626Z,30.32
2019-05-13T15:36:50.948Z,30.54
2019-05-13T15:39:17.373Z,30.87
2019-05-13T15:41:43.229Z,30.42
2019-05-13T15:44:11.318Z,30.95
2019-05-13T15:46:36.830Z,31.02
2019-05-13T15:49:02.682Z,30.32
2019-05-13T15:51:31.293Z,30.44
2019-05-13T15:53:57.322Z,31.00
2019-05-13T15:56:23.383Z,31.38
2019-05-13T15:58:49.348Z,30.56
2019-05-13T16:01:15.198Z,30.83
2019-05-13T16:03:41.675Z,31.82
2019-05-13T16:06:07.601Z,31.65
2019-05-13T16:08:33.480Z,32.29
2019-05-13T16:11:01.852Z,31.87
2019-05-13T16:13:27.228Z,32.49
2019-05-13T16:15:53.210Z,32.62
2019-05-13T16:18:19.298Z,32.78
2019-05-13T16:20:45.533Z,33.73
2019-05-13T16:23:12.407Z,34.54
2019-05-13T16:25:38.541Z,34.15
2019-05-13T16:28:04.397Z,34.17
2019-05-13T16:30:32.035Z,34.75
2019-05-13T16:32:58.054Z,35.34
2019-05-13T16:35:24.025Z,35.76
2019-05-13T16:37:50.718Z,36.58
2019-05-13T16:40:17.369Z,36.08
2019-05-13T16:42:43.227Z,36.36
2019-05-13T16:45:11.993Z,35.71
2019-05-13T16:47:37.732Z,35.71
2019-05-13T16:50:05.791Z,36.80
2019-05-13T16:52:31.849Z,34.98
2019-05-13T16:54:57.747Z,35.16
2019-05-13T16:57:23.681Z,34.99
2019-05-13T16:59:51.546Z,34.20
2019-05-13T17:02:17.609Z,33.84
2019-05-13T17:04:43.465Z,34.54
2019-05-13T17:07:09.328Z,35.59
2019-05-13T17:09:35.191Z,35.31
2019-05-13T17:12:01.419Z,36.08
2019-05-13T17:14:27.512Z,36.59
2019-05-13T17:16:53.396Z,36.41
2019-05-13T17:19:19.263Z,37.60
2019-05-13T17:21:45.121Z,36.75
2019-05-13T17:24:12.382Z,37.19
2019-05-13T17:26:38.484Z,36.82
2019-05-13T17:29:04.342Z,37.70
2019-05-13T17:31:32.368Z,37.99
2019-05-13T17:33:57.974Z,37.99
2019-05-13T17:36:23.846Z,38.21
2019-05-13T17:38:49.723Z,38.50
2019-05-13T17:41:15.670Z,39.34
2019-05-13T17:43:41.527Z,38.61
2019-05-13T17:46:07.389Z,38.97
2019-05-13T17:48:33.384Z,39.04
2019-05-13T17:51:01.362Z,39.61
2019-05-13T17:53:27.073Z,39.20
2019-05-13T17:55:52.960Z,39.01
2019-05-13T17:58:18.840Z,39.46
2019-05-13T18:00:44.689Z,40.31
2019-05-13T18:03:11.309Z,40.24
2019-05-13T18:05:37.518Z,40.35
2019-05-13T18:08:03.383Z,40.80
2019-05-13T18:10:31.615Z,41.58
2019-05-13T18:12:57.101Z,41.95
2019-05-13T18:15:23.002Z,42.14
2019-05-13T18:17:48.867Z,43.21
2019-05-13T18:20:15.338Z,43.47
2019-05-13T18:22:41.984Z,43.06
2019-05-13T18:25:11.733Z,43.82
2019-05-13T18:27:36.770Z,43.28
2019-05-13T18:30:05.891Z,43.91
2019-05-13T18:32:32.075Z,44.12
2019-05-13T18:34:58.031Z,44.18
2019-05-13T18:37:24.120Z,45.04
2019-05-13T18:39:52.033Z,45.20
2019-05-13T18:42:18.056Z,45.17
2019-05-13T18:44:44.040Z,46.12
2019-05-13T18:47:12.049Z,45.82
2019-05-13T18:49:38.374Z,45.87
2019-05-13T18:52:04.338Z,46.55
2019-05-13T18:54:31.570Z,46.44
2019-05-13T18:56:57.759Z,47.00
2019-05-13T18:59:23.611Z,46.87
2019-05-13T19:01:52.681Z,47.15
2019-05-13T19:04:17.253Z,47.28
2019-05-13T19:06:43.129Z,48.00
2019-05-13T19:09:11.050Z,48.33
2019-05-13T19:11:36.798Z,48.29
2019-05-13T19:14:02.741Z,48.56
2019-05-13T19:16:28.606Z,48.81
2019-05-13T19:18:54.499Z,48.97
2019-05-13T19:21:21.858Z,49.26
2019-05-13T19:23:47.949Z,49.15
2019-05-13T19:26:13.817Z,49.66
2019-05-13T19:28:39.702Z,49.81
2019-05-13T19:31:05.560Z,49.74
2019-05-13T19:33:31.443Z,49.74
2019-05-13T19:35:57.297Z,49.59
2019-05-13T19:38:23.445Z,49.89
2019-05-13T19:40:50.141Z,49.96
2019-05-13T19:43:15.995Z,50.41
2019-05-13T19:45:41.853Z,50.00
2019-05-13T19:48:07.738Z,50.23
2019-05-13T19:50:33.594Z,50.20
2019-05-13T19:53:01.308Z,50.23
2019-05-13T19:55:27.266Z,50.34
2019-05-13T19:57:53.267Z,50.30
2019-05-13T20:00:21.180Z,50.23
2019-05-13T20:02:47.156Z,50.55
2019-05-13T20:05:13.031Z,50.26
2019-05-13T20:07:38.898Z,50.36
2019-05-13T20:10:05.566Z,50.28
2019-05-13T20:12:31.432Z,50.27
2019-05-13T20:14:57.294Z,50.91
2019-05-13T20:17:23.461Z,50.98
2019-05-13T20:19:51.388Z,50.97
2019-05-13T20:22:17.146Z,51.00
2019-05-13T20:24:43.118Z,51.67
2019-05-13T20:27:08.962Z,51.37
2019-05-13T20:29:34.826Z,51.81
2019-05-13T20:32:01.317Z,51.95
2019-05-13T20:34:27.346Z,51.97
2019-05-13T20:36:53.223Z,51.96
2019-05-13T20:39:19.132Z,52.34
2019-05-13T20:41:44.995Z,52.17
2019-05-13T20:44:10.875Z,52.38
2019-05-13T20:46:36.974Z,52.44
2019-05-13T20:49:02.834Z,52.58
2019-05-13T20:51:28.710Z,52.91
2019-05-13T20:53:54.573Z,52.54
2019-05-13T20:56:21.377Z,52.61
2019-05-13T20:58:47.564Z,53.00
2019-05-13T21:01:13.450Z,53.02
2019-05-13T21:03:41.870Z,52.85
2019-05-13T21:06:07.058Z,53.25
2019-05-13T21:08:32.934Z,53.45
2019-05-13T21:10:58.787Z,53.45
2019-05-13T21:13:24.634Z,53.60
2019-05-13T21:15:51.836Z,55.10
2019-05-13T21:18:17.975Z,54.01
2019-05-13T21:20:43.826Z,53.81
2019-05-13T21:23:11.331Z,53.67
2019-05-13T21:25:37.485Z,53.89
2019-05-13T21:28:03.425Z,54.08
2019-05-13T21:30:29.315Z,54.45
2019-05-13T21:32:55.194Z,54.18
2019-05-13T21:35:22.617Z,53.96
2019-05-13T21:37:48.483Z,53.69
2019-05-13T21:40:15.956Z,53.44
2019-05-13T21:42:42.116Z,53.65
2019-05-13T21:45:08.203Z,53.41
2019-05-13T21:47:34.056Z,53.08
2019-05-13T21:50:00.013Z,53.31
2019-05-13T21:52:25.848Z,53.44
2019-05-13T21:54:51.761Z,52.95
2019-05-13T21:57:17.565Z,53.00
2019-05-13T21:59:45.215Z,52.99
2019-05-13T22:02:11.215Z,53.07
2019-05-13T22:04:37.193Z,52.70
2019-05-13T22:07:03.070Z,51.94
2019-05-13T22:09:28.936Z,51.86
2019-05-13T22:11:54.908Z,52.64
2019-05-13T22:14:20.766Z,51.53
2019-05-13T22:16:46.634Z,52.18
2019-05-13T22:19:12.501Z,51.77
2019-05-13T22:21:38.358Z,52.33
2019-05-13T22:24:04.222Z,51.72
2019-05-13T22:26:31.183Z,52.08
2019-05-13T22:28:57.045Z,52.69
2019-05-13T22:31:22.988Z,52.36
2019-05-13T22:33:48.857Z,52.32
2019-05-13T22:36:14.731Z,51.91
2019-05-13T22:38:42.647Z,51.58
2019-05-13T22:41:08.670Z,51.39
2019-05-13T22:43:34.540Z,52.48
2019-05-13T22:46:01.232Z,52.70
2019-05-13T22:48:27.106Z,52.55
2019-05-13T22:50:52.946Z,52.29
2019-05-13T22:53:20.986Z,52.38
2019-05-13T22:55:46.593Z,52.54
2019-05-13T22:58:12.484Z,53.04
2019-05-13T23:00:38.471Z,52.38
2019-05-13T23:03:04.336Z,53.11
2019-05-13T23:05:30.185Z,52.89
2019-05-13T23:07:56.067Z,52.85
2019-05-13T23:10:22.519Z,53.16
2019-05-13T23:12:48.564Z,53.50
2019-05-13T23:15:14.536Z,53.23
2019-05-13T23:17:41.494Z,53.55
2019-05-13T23:20:07.817Z,53.56
2019-05-13T23:22:33.662Z,53.66
2019-05-13T23:25:01.475Z,53.68
2019-05-13T23:27:27.288Z,54.03
2019-05-13T23:29:53.150Z,54.58
2019-05-13T23:32:21.172Z,54.22
2019-05-13T23:34:46.785Z,54.78
2019-05-13T23:37:12.652Z,54.67
2019-05-13T23:39:38.503Z,55.61
2019-05-13T23:42:04.374Z,56.00
2019-05-13T23:44:32.178Z,55.55
2019-05-13T23:46:58.062Z,55.68
2019-05-13T23:49:23.984Z,55.58
2019-05-13T23:51:52.038Z,56.50
2019-05-13T23:54:17.894Z,55.66
2019-05-13T23:56:43.757Z,56.09
2019-05-13T23:59:11.319Z,55.97
